createdAt,value
2019-02-02T00:01:51.503Z,21.80
2019-02-02T00:04:19.587Z,21.80
2019-02-02T00:06:48.827Z,20.03
2019-02-02T00:09:16.901Z,20.47
2019-02-02T00:11:44.829Z,20.50
2019-02-02T00:14:15.578Z,21.40
2019-02-02T00:16:43.333Z,23.40
2019-02-02T00:19:13.974Z,22.30
2019-02-02T00:21:41.927Z,21.63
2019-02-02T00:24:09.863Z,22.23
2019-02-02T00:26:38.574Z,23.23
2019-02-02T00:29:06.209Z,22.10
2019-02-02T00:31:36.445Z,22.67
2019-02-02T00:34:05.370Z,22.93
2019-02-02T00:36:32.968Z,22.00
2019-02-02T00:39:00.614Z,22.27
2019-02-02T00:41:28.608Z,22.63
2019-02-02T00:43:58.225Z,21.60
2019-02-02T00:46:25.849Z,23.07
2019-02-02T00:48:54.054Z,22.07
2019-02-02T00:51:21.629Z,22.33
2019-02-02T00:53:49.735Z,22.27
2019-02-02T00:56:18.195Z,22.93
2019-02-02T00:58:45.801Z,21.43
2019-02-02T01:01:14.585Z,21.57
2019-02-02T01:03:42.387Z,22.90
2019-02-02T01:06:10.035Z,24.45
2019-02-02T01:08:37.713Z,23.93
2019-02-02T01:11:08.539Z,22.77
2019-02-02T01:13:36.481Z,22.77
2019-02-02T01:16:04.243Z,23.03
2019-02-02T01:18:32.016Z,21.40
2019-02-02T01:20:59.626Z,21.70
2019-02-02T01:23:28.518Z,21.60
2019-02-02T01:25:56.630Z,21.83
2019-02-02T01:28:24.291Z,23.17
2019-02-02T01:30:54.021Z,23.27
2019-02-02T01:33:23.139Z,23.10
2019-02-02T01:35:50.853Z,23.43
2019-02-02T01:38:18.815Z,23.97
2019-02-02T01:40:46.986Z,23.73
2019-02-02T01:43:15.007Z,24.20
2019-02-02T01:45:42.792Z,22.33
2019-02-02T01:48:11.991Z,24.63
2019-02-02T01:50:39.659Z,23.03
2019-02-02T01:53:07.304Z,22.97
2019-02-02T01:55:35.357Z,24.63
2019-02-02T01:58:03.273Z,23.93
2019-02-02T02:00:31.423Z,23.23
2019-02-02T02:03:00.221Z,22.63
2019-02-02T02:05:27.831Z,21.47
2019-02-02T02:07:55.512Z,23.30
2019-02-02T02:10:23.482Z,23.00
2019-02-02T02:12:51.023Z,23.17
2019-02-02T02:15:19.352Z,22.67
2019-02-02T02:17:47.190Z,22.97
2019-02-02T02:20:15.577Z,24.13
2019-02-02T02:22:43.724Z,24.97
2019-02-02T02:25:13.530Z,23.17
2019-02-02T02:27:41.285Z,24.63
2019-02-02T02:30:12.347Z,24.57
2019-02-02T02:32:42.267Z,24.33
2019-02-02T02:35:10.251Z,22.47
2019-02-02T02:37:37.879Z,23.63
2019-02-02T02:40:06.678Z,23.27
2019-02-02T02:42:34.414Z,22.17
2019-02-02T02:45:02.187Z,21.93
2019-02-02T02:47:30.790Z,22.40
2019-02-02T02:49:58.456Z,22.57
2019-02-02T02:52:28.219Z,22.10
2019-02-02T02:54:57.507Z,23.17
2019-02-02T02:57:25.224Z,21.87
2019-02-02T02:59:52.879Z,23.00
2019-02-02T03:02:20.660Z,22.80
2019-02-02T03:04:48.259Z,22.90
2019-02-02T03:07:19.313Z,23.03
2019-02-02T03:09:50.697Z,21.53
2019-02-02T03:12:18.380Z,22.33
2019-02-02T03:14:46.109Z,22.13
2019-02-02T03:17:14.183Z,22.17
2019-02-02T03:19:41.826Z,21.47
2019-02-02T03:22:09.455Z,22.70
2019-02-02T03:24:37.494Z,22.73
2019-02-02T03:27:05.168Z,22.10
2019-02-02T03:29:32.782Z,22.37
2019-02-02T03:32:01.697Z,24.63
2019-02-02T03:34:29.360Z,23.03
2019-02-02T03:36:58.338Z,23.33
2019-02-02T03:39:26.411Z,24.30
2019-02-02T03:41:54.118Z,23.93
2019-02-02T03:44:21.924Z,22.37
2019-02-02T03:46:49.770Z,22.53
2019-02-02T03:49:17.436Z,23.53
2019-02-02T03:51:45.098Z,22.57
2019-02-02T03:54:13.035Z,24.03
2019-02-02T03:56:40.822Z,23.00
2019-02-02T03:59:09.764Z,23.83
2019-02-02T04:01:39.167Z,24.77
2019-02-02T04:04:07.158Z,24.10
2019-02-02T04:06:34.696Z,23.00
2019-02-02T04:09:06.166Z,24.57
2019-02-02T04:11:36.191Z,24.37
2019-02-02T04:14:04.341Z,24.50
2019-02-02T04:16:35.226Z,25.07
2019-02-02T04:19:03.099Z,24.57
2019-02-02T04:21:30.652Z,25.40
2019-02-02T04:23:58.283Z,25.43
2019-02-02T04:26:25.934Z,25.80
2019-02-02T04:28:54.547Z,24.40
2019-02-02T04:31:22.639Z,24.10
2019-02-02T04:33:50.255Z,24.60
2019-02-02T04:36:17.810Z,24.67
2019-02-02T04:38:45.658Z,26.13
2019-02-02T04:41:13.350Z,26.97
2019-02-02T04:43:41.059Z,26.77
2019-02-02T04:46:09.283Z,26.27
2019-02-02T04:48:36.882Z,26.67
2019-02-02T04:51:04.595Z,26.97
2019-02-02T04:53:33.417Z,26.23
2019-02-02T04:56:01.245Z,26.93
2019-02-02T04:58:28.858Z,24.03
2019-02-02T05:00:56.696Z,25.93
2019-02-02T05:03:24.361Z,22.37
2019-02-02T05:05:51.940Z,24.13
2019-02-02T05:08:19.861Z,26.30
2019-02-02T05:10:47.535Z,27.27
2019-02-02T05:13:15.423Z,26.33
2019-02-02T05:15:43.331Z,26.30
2019-02-02T05:18:11.331Z,27.53
2019-02-02T05:20:39.427Z,27.83
2019-02-02T05:23:07.264Z,28.73
2019-02-02T05:25:34.985Z,27.27
2019-02-02T05:28:02.699Z,29.27
2019-02-02T05:30:31.038Z,28.53
2019-02-02T05:32:58.653Z,28.87
2019-02-02T05:35:26.297Z,27.13
2019-02-02T05:37:54.091Z,27.47
2019-02-02T05:40:21.780Z,28.23
2019-02-02T05:42:49.710Z,27.23
2019-02-02T05:45:18.246Z,27.57
2019-02-02T05:47:45.862Z,27.77
2019-02-02T05:50:15.460Z,27.77
2019-02-02T05:52:43.134Z,27.30
2019-02-02T05:55:11.757Z,26.07
2019-02-02T05:57:39.317Z,26.80
2019-02-02T06:00:11.530Z,25.47
2019-02-02T06:02:39.133Z,27.23
2019-02-02T06:05:07.107Z,26.50
2019-02-02T06:07:35.018Z,27.73
2019-02-02T06:10:08.600Z,28.63
2019-02-02T06:12:36.241Z,25.97
2019-02-02T06:15:05.638Z,27.33
2019-02-02T06:17:33.278Z,27.97
2019-02-02T06:20:01.030Z,27.93
2019-02-02T06:22:29.042Z,28.00
2019-02-02T06:25:03.016Z,26.77
2019-02-02T06:27:30.563Z,28.07
2019-02-02T06:30:04.481Z,26.90
2019-02-02T06:32:33.954Z,28.17
2019-02-02T06:35:02.207Z,26.03
2019-02-02T06:37:30.312Z,25.23
2019-02-02T06:39:59.562Z,25.10
2019-02-02T06:42:27.603Z,24.70
2019-02-02T06:44:56.676Z,24.03
2019-02-02T06:47:24.434Z,25.30
2019-02-02T06:49:52.212Z,26.20
2019-02-02T06:52:20.281Z,25.40
2019-02-02T06:54:49.262Z,25.67
2019-02-02T06:57:16.886Z,25.23
2019-02-02T06:59:44.742Z,26.43
2019-02-02T07:02:12.364Z,26.23
2019-02-02T07:04:40.050Z,25.60
2019-02-02T07:07:07.986Z,27.30
2019-02-02T07:09:37.471Z,26.60
2019-02-02T07:12:06.280Z,26.33
2019-02-02T07:14:34.749Z,26.27
2019-02-02T07:17:02.380Z,25.83
2019-02-02T07:19:31.186Z,26.40
2019-02-02T07:21:58.942Z,28.77
2019-02-02T07:24:26.600Z,28.03
2019-02-02T07:26:54.263Z,28.60
2019-02-02T07:29:21.999Z,27.20
2019-02-02T07:31:49.589Z,27.33
2019-02-02T07:34:17.213Z,27.40
2019-02-02T07:36:47.248Z,26.17
2019-02-02T07:39:23.814Z,28.07
2019-02-02T07:41:51.594Z,28.80
2019-02-02T07:44:19.209Z,28.47
2019-02-02T07:46:46.833Z,28.70
2019-02-02T07:49:14.842Z,29.83
2019-02-02T07:51:42.647Z,28.07
2019-02-02T07:54:15.699Z,27.80
2019-02-02T07:56:43.739Z,28.03
2019-02-02T07:59:12.300Z,29.07
2019-02-02T08:01:39.909Z,27.93
2019-02-02T08:04:08.091Z,28.00
2019-02-02T08:06:35.695Z,27.53
2019-02-02T08:09:06.736Z,28.67
2019-02-02T08:11:34.398Z,28.37
2019-02-02T08:14:01.997Z,27.60
2019-02-02T08:16:32.025Z,27.57
2019-02-02T08:18:59.662Z,26.97
2019-02-02T08:21:27.307Z,29.27
2019-02-02T08:23:54.953Z,31.93
2019-02-02T08:26:24.199Z,35.13
2019-02-02T08:28:54.493Z,33.30
2019-02-02T08:31:22.320Z,31.67
2019-02-02T08:33:50.101Z,31.13
2019-02-02T08:36:17.780Z,27.20
2019-02-02T08:38:47.510Z,29.40
2019-02-02T08:41:15.326Z,28.13
2019-02-02T08:43:42.895Z,27.70
2019-02-02T08:46:10.725Z,25.87
2019-02-02T08:48:38.383Z,26.17
2019-02-02T08:51:06.097Z,27.67
2019-02-02T08:53:33.905Z,28.07
2019-02-02T08:56:01.952Z,27.33
2019-02-02T08:58:29.507Z,27.57
2019-02-02T09:01:04.108Z,29.77
2019-02-02T09:03:29.555Z,31.33
2019-02-02T09:06:07.809Z,30.17
2019-02-02T09:08:36.280Z,28.03
2019-02-02T09:11:06.446Z,27.90
2019-02-02T09:13:37.474Z,29.07
2019-02-02T09:16:07.375Z,29.33
2019-02-02T09:18:37.114Z,30.43
2019-02-02T09:21:04.701Z,30.27
2019-02-02T09:23:32.408Z,30.37
2019-02-02T09:26:02.831Z,31.27
2019-02-02T09:28:33.459Z,29.73
2019-02-02T09:31:01.130Z,28.97
2019-02-02T09:33:31.154Z,29.37
2019-02-02T09:35:59.742Z,28.87
2019-02-02T09:38:31.544Z,31.40
2019-02-02T09:40:59.204Z,29.50
2019-02-02T09:43:26.790Z,29.03
2019-02-02T09:45:54.863Z,29.80
2019-02-02T09:48:27.249Z,28.77
2019-02-02T09:50:56.036Z,28.67
2019-02-02T09:53:24.101Z,29.47
2019-02-02T09:55:51.740Z,28.77
2019-02-02T09:58:19.444Z,29.37
2019-02-02T10:00:47.193Z,28.20
2019-02-02T10:03:15.366Z,29.70
2019-02-02T10:06:05.628Z,28.77
2019-02-02T10:08:33.232Z,28.67
2019-02-02T10:11:01.190Z,29.57
2019-02-02T10:13:31.177Z,29.83
2019-02-02T10:15:58.764Z,30.40
2019-02-02T10:18:26.634Z,30.47
2019-02-02T10:21:03.715Z,30.23
2019-02-02T10:23:27.456Z,30.67
2019-02-02T10:25:55.439Z,32.97
2019-02-02T10:28:24.945Z,30.83
2019-02-02T10:30:53.887Z,32.50
2019-02-02T10:33:21.496Z,32.23
2019-02-02T10:35:49.328Z,32.50
2019-02-02T10:38:19.846Z,31.60
2019-02-02T10:40:47.485Z,32.87
2019-02-02T10:43:15.307Z,36.27
2019-02-02T10:45:44.937Z,32.77
2019-02-02T10:48:13.481Z,32.97
2019-02-02T10:50:43.287Z,32.63
2019-02-02T10:53:10.819Z,31.83
2019-02-02T10:55:38.443Z,30.90
2019-02-02T10:58:06.685Z,32.37
2019-02-02T11:00:36.923Z,32.33
2019-02-02T11:03:07.511Z,33.63
2019-02-02T11:05:36.053Z,33.03
2019-02-02T11:08:05.247Z,32.70
2019-02-02T11:10:34.096Z,32.80
2019-02-02T11:13:05.742Z,33.37
2019-02-02T11:15:34.003Z,32.13
2019-02-02T11:18:04.775Z,34.33
2019-02-02T11:20:34.476Z,34.63
2019-02-02T11:23:02.944Z,34.43
2019-02-02T11:25:35.039Z,32.80
2019-02-02T11:28:06.649Z,32.93
2019-02-02T11:30:51.929Z,29.50
2019-02-02T11:33:18.968Z,28.17
2019-02-02T11:35:49.498Z,30.30
2019-02-02T11:38:17.321Z,29.00
2019-02-02T11:40:45.206Z,26.10
2019-02-02T11:43:12.847Z,25.20
2019-02-02T11:45:40.500Z,26.03
2019-02-02T11:48:08.120Z,22.43
2019-02-02T11:50:35.769Z,20.87
2019-02-02T11:53:03.823Z,21.83
2019-02-02T11:55:31.537Z,22.53
2019-02-02T11:57:59.191Z,20.60
2019-02-02T12:00:37.888Z,21.13
2019-02-02T12:03:07.482Z,21.73
2019-02-02T12:05:35.503Z,21.17
2019-02-02T12:08:04.238Z,22.23
2019-02-02T12:10:34.630Z,21.87
2019-02-02T12:13:04.513Z,23.17
2019-02-02T12:15:32.178Z,22.33
2019-02-02T12:18:02.252Z,22.63
2019-02-02T12:20:34.765Z,23.40
2019-02-02T12:23:06.658Z,22.00
2019-02-02T12:25:37.271Z,23.23
2019-02-02T12:28:05.396Z,23.30
2019-02-02T12:30:34.636Z,22.63
2019-02-02T12:33:03.234Z,23.57
2019-02-02T12:35:35.534Z,22.23
2019-02-02T12:38:06.122Z,23.23
2019-02-02T12:40:33.989Z,24.07
2019-02-02T12:43:05.761Z,23.60
2019-02-02T12:45:45.400Z,23.63
2019-02-02T12:48:23.509Z,23.80
2019-02-02T12:50:51.362Z,22.70
2019-02-02T12:53:23.530Z,23.03
2019-02-02T12:56:13.748Z,23.93
2019-02-02T12:58:41.582Z,22.67
2019-02-02T13:01:09.584Z,24.07
2019-02-02T13:03:42.456Z,23.33
2019-02-02T13:06:13.305Z,23.77
2019-02-02T13:08:42.349Z,24.73
2019-02-02T13:11:10.104Z,25.10
2019-02-02T13:13:37.793Z,39.07
2019-02-02T13:16:05.708Z,25.37
2019-02-02T13:18:33.674Z,24.33
2019-02-02T13:21:01.695Z,23.53
2019-02-02T13:23:29.520Z,23.00
2019-02-02T13:26:05.521Z,22.90
2019-02-02T13:28:30.297Z,20.13
2019-02-02T13:31:00.444Z,21.37
2019-02-02T13:33:35.090Z,19.67
2019-02-02T13:36:06.567Z,19.70
2019-02-02T13:38:35.473Z,17.70
2019-02-02T13:41:03.478Z,17.93
2019-02-02T13:43:31.646Z,17.77
2019-02-02T13:45:59.570Z,18.57
2019-02-02T13:48:31.130Z,16.90
2019-02-02T13:50:59.278Z,18.17
2019-02-02T13:53:27.029Z,19.07
2019-02-02T13:55:55.168Z,18.07
2019-02-02T13:58:26.210Z,17.57
2019-02-02T14:00:53.843Z,15.87
2019-02-02T14:03:21.638Z,15.33
2019-02-02T14:05:49.331Z,14.57
2019-02-02T14:08:17.054Z,15.80
2019-02-02T14:10:45.070Z,15.57
2019-02-02T14:13:13.131Z,14.17
2019-02-02T14:15:41.076Z,14.33
2019-02-02T14:18:08.817Z,15.57
2019-02-02T14:20:39.398Z,14.20
2019-02-02T14:23:08.850Z,14.17
2019-02-02T14:25:39.465Z,15.07
2019-02-02T14:28:09.270Z,15.03
2019-02-02T14:30:37.858Z,13.93
2019-02-02T14:33:13.605Z,14.57
2019-02-02T14:35:36.083Z,26.37
2019-02-02T14:38:05.891Z,13.33
2019-02-02T14:40:34.156Z,13.13
2019-02-02T14:43:04.543Z,13.67
2019-02-02T14:45:35.196Z,13.77
2019-02-02T14:48:04.234Z,12.53
2019-02-02T14:50:34.843Z,13.33
2019-02-02T14:53:05.494Z,13.00
2019-02-02T14:55:36.284Z,13.27
2019-02-02T14:58:05.096Z,13.37
2019-02-02T15:00:34.043Z,13.97
2019-02-02T15:03:03.336Z,15.03
2019-02-02T15:05:42.498Z,13.30
2019-02-02T15:08:04.330Z,13.73
2019-02-02T15:10:33.862Z,13.83
2019-02-02T15:13:01.821Z,13.17
2019-02-02T15:15:32.248Z,12.97
2019-02-02T15:18:02.211Z,12.43
2019-02-02T15:20:32.327Z,12.93
2019-02-02T15:23:00.686Z,13.10
2019-02-02T15:25:28.760Z,13.67
2019-02-02T15:27:58.737Z,40.07
2019-02-02T15:30:29.787Z,32.40
2019-02-02T15:33:01.567Z,13.93
2019-02-02T15:35:30.494Z,13.23
2019-02-02T15:37:58.162Z,13.07
2019-02-02T15:40:26.168Z,15.27
2019-02-02T15:42:54.132Z,15.50
2019-02-02T15:45:26.727Z,14.10
2019-02-02T15:47:54.407Z,15.07
2019-02-02T15:50:25.739Z,16.57
2019-02-02T15:52:54.431Z,16.80
2019-02-02T15:55:30.136Z,16.83
2019-02-02T15:57:58.287Z,17.37
2019-02-02T16:00:30.833Z,14.67
2019-02-02T16:03:03.655Z,16.73
2019-02-02T16:05:40.155Z,17.60
2019-02-02T16:08:15.995Z,17.10
2019-02-02T16:10:47.532Z,17.43
2019-02-02T16:13:18.108Z,17.90
2019-02-02T16:15:52.881Z,18.17
2019-02-02T16:18:20.853Z,18.87
2019-02-02T16:20:48.534Z,18.07
2019-02-02T16:23:18.269Z,19.20
2019-02-02T16:25:46.436Z,19.57
2019-02-02T16:28:14.109Z,20.13
2019-02-02T16:30:42.173Z,22.97
2019-02-02T16:33:10.571Z,20.73
2019-02-02T16:35:38.209Z,21.03
2019-02-02T16:38:05.999Z,20.47
2019-02-02T16:40:36.424Z,20.03
2019-02-02T16:43:06.916Z,20.60
2019-02-02T16:45:37.959Z,20.47
2019-02-02T16:48:06.267Z,19.17
2019-02-02T16:50:36.361Z,19.30
2019-02-02T16:53:04.165Z,19.20
2019-02-02T16:55:31.814Z,18.83
2019-02-02T16:57:59.581Z,20.70
2019-02-02T17:00:30.090Z,20.40
2019-02-02T17:03:00.379Z,19.47
2019-02-02T17:05:28.242Z,21.37
2019-02-02T17:07:56.079Z,20.57
2019-02-02T17:10:27.302Z,20.07
2019-02-02T17:13:01.695Z,19.50
2019-02-02T17:15:30.484Z,19.70
2019-02-02T17:17:58.180Z,128.00
2019-02-02T17:20:32.999Z,29.67
2019-02-02T17:23:00.678Z,19.47
2019-02-02T17:25:32.956Z,20.70
2019-02-02T17:28:11.495Z,20.90
2019-02-02T17:30:40.240Z,22.93
2019-02-02T17:33:11.064Z,21.30
2019-02-02T17:35:41.953Z,20.33
2019-02-02T17:38:09.869Z,19.53
2019-02-02T17:40:39.582Z,18.13
2019-02-02T17:43:07.275Z,19.40
2019-02-02T17:45:35.018Z,19.50
2019-02-02T17:48:13.017Z,19.20
2019-02-02T17:50:40.410Z,19.37
2019-02-02T17:53:08.476Z,20.20
2019-02-02T17:55:39.126Z,19.17
2019-02-02T17:58:07.279Z,19.30
2019-02-02T18:00:40.614Z,18.70
2019-02-02T18:03:27.095Z,18.50
2019-02-02T18:05:55.318Z,19.93
2019-02-02T18:08:29.535Z,25.60
2019-02-02T18:10:58.219Z,18.40
2019-02-02T18:13:31.872Z,18.57
2019-02-02T18:16:10.349Z,19.20
2019-02-02T18:18:49.358Z,17.27
2019-02-02T18:21:20.303Z,18.37
2019-02-02T18:23:49.961Z,18.63
2019-02-02T18:26:21.777Z,21.87
2019-02-02T18:28:49.776Z,18.17
2019-02-02T18:31:24.136Z,19.37
2019-02-02T18:33:57.570Z,18.30
2019-02-02T18:36:30.779Z,17.10
2019-02-02T18:38:59.342Z,19.07
2019-02-02T18:41:29.850Z,18.77
2019-02-02T18:44:00.315Z,17.60
2019-02-02T18:46:28.196Z,19.13
2019-02-02T18:48:56.226Z,20.67
2019-02-02T18:51:31.198Z,19.93
2019-02-02T18:56:52.689Z,19.60
2019-02-02T18:59:20.937Z,19.33
2019-02-02T19:01:48.577Z,19.03
2019-02-02T19:04:17.689Z,19.77
2019-02-02T19:06:51.555Z,19.03
2019-02-02T19:09:23.510Z,22.23
2019-02-02T19:11:51.194Z,21.43
2019-02-02T19:14:20.342Z,24.53
2019-02-02T19:17:00.530Z,24.57
2019-02-02T19:19:20.441Z,21.37
2019-02-02T19:21:50.052Z,22.17
2019-02-02T19:24:18.530Z,22.17
2019-02-02T19:26:46.478Z,21.50
2019-02-02T19:29:14.151Z,21.27
2019-02-02T19:31:44.265Z,21.43
2019-02-02T19:34:11.899Z,21.53
2019-02-02T19:36:39.728Z,22.07
2019-02-02T19:39:09.251Z,22.67
2019-02-02T19:41:37.216Z,22.80
2019-02-02T19:44:10.664Z,22.27
2019-02-02T19:46:43.505Z,25.33
2019-02-02T19:49:19.000Z,23.40
2019-02-02T19:51:46.654Z,25.97
2019-02-02T19:54:18.730Z,29.87
2019-02-02T19:56:46.626Z,29.00
2019-02-02T19:59:23.623Z,27.97
2019-02-02T20:02:00.547Z,27.63
2019-02-02T20:04:30.057Z,23.23
2019-02-02T20:07:00.077Z,20.80
2019-02-02T20:09:29.074Z,24.23
2019-02-02T20:12:02.458Z,24.73
2019-02-02T20:14:33.269Z,24.17
2019-02-02T20:17:01.284Z,24.37
2019-02-02T20:19:29.222Z,31.53
2019-02-02T20:21:57.216Z,41.80
2019-02-02T20:24:25.263Z,73.83
2019-02-02T20:26:53.142Z,58.20
2019-02-02T20:29:21.951Z,47.43
2019-02-02T20:31:50.466Z,52.10
2019-02-02T20:34:19.022Z,67.10
2019-02-02T20:36:48.825Z,73.87
2019-02-02T20:39:19.741Z,49.37
2019-02-02T20:41:47.738Z,68.27
2019-02-02T20:44:15.796Z,69.57
2019-02-02T20:46:46.277Z,20.77
2019-02-02T20:49:14.394Z,18.80
2019-02-02T20:51:43.899Z,19.37
2019-02-02T20:54:14.439Z,18.73
2019-02-02T20:56:42.865Z,19.77
2019-02-02T20:59:10.505Z,17.03
2019-02-02T21:01:40.336Z,16.90
2019-02-02T21:04:08.261Z,17.33
2019-02-02T21:06:35.856Z,17.87
2019-02-02T21:09:06.082Z,17.23
2019-02-02T21:11:37.260Z,18.00
2019-02-02T21:14:11.388Z,17.87
2019-02-02T21:16:39.086Z,19.40
2019-02-02T21:19:07.138Z,18.93
2019-02-02T21:21:36.972Z,20.57
2019-02-02T21:24:07.678Z,19.13
2019-02-02T21:26:43.112Z,19.07
2019-02-02T21:29:09.532Z,24.13
2019-02-02T21:31:37.166Z,18.63
2019-02-02T21:34:05.517Z,29.63
2019-02-02T21:36:36.015Z,27.77
2019-02-02T21:39:08.984Z,27.07
2019-02-02T21:41:42.764Z,24.27
2019-02-02T21:44:13.073Z,19.33
2019-02-02T21:46:41.020Z,18.53
2019-02-02T21:49:14.018Z,19.50
2019-02-02T21:51:41.835Z,19.63
2019-02-02T21:54:15.170Z,20.10
2019-02-02T21:56:43.000Z,19.53
2019-02-02T21:59:10.687Z,24.07
2019-02-02T22:01:38.262Z,25.47
2019-02-02T22:04:06.724Z,27.30
2019-02-02T22:06:36.841Z,31.97
2019-02-02T22:09:09.346Z,33.60
2019-02-02T22:11:37.985Z,28.23
2019-02-02T22:14:08.016Z,18.53
2019-02-02T22:16:36.103Z,17.70
2019-02-02T22:19:05.773Z,18.50
2019-02-02T22:21:33.724Z,16.43
2019-02-02T22:24:01.454Z,16.57
2019-02-02T22:26:29.269Z,16.10
2019-02-02T22:28:59.019Z,15.20
2019-02-02T22:31:31.298Z,16.03
2019-02-02T22:33:59.077Z,14.03
2019-02-02T22:36:27.850Z,14.33
2019-02-02T22:38:55.613Z,15.07
2019-02-02T22:41:23.874Z,13.83
2019-02-02T22:43:51.478Z,13.97
2019-02-02T22:46:19.613Z,13.83
2019-02-02T22:48:47.235Z,13.40
2019-02-02T22:51:15.089Z,13.83
2019-02-02T22:53:42.975Z,12.83
2019-02-02T22:56:11.093Z,13.63
2019-02-02T22:58:40.594Z,13.50
2019-02-02T23:01:37.218Z,13.37
2019-02-02T23:04:29.815Z,13.37
2019-02-02T23:07:08.671Z,13.37
2019-02-02T23:10:26.723Z,13.00
2019-02-02T23:13:22.099Z,13.03
2019-02-02T23:16:27.716Z,13.77
2019-02-02T23:18:58.798Z,13.40
2019-02-02T23:21:27.643Z,13.77
2019-02-02T23:23:55.544Z,13.47
2019-02-02T23:26:27.067Z,13.43
2019-02-02T23:28:54.736Z,13.83
2019-02-02T23:31:22.818Z,13.40
2019-02-02T23:33:50.451Z,13.67
2019-02-02T23:36:18.135Z,14.00
2019-02-02T23:38:45.786Z,16.37
2019-02-02T23:41:13.750Z,16.07
2019-02-02T23:43:41.801Z,16.47
2019-02-02T23:46:09.901Z,17.13
2019-02-02T23:48:37.606Z,16.57
2019-02-02T23:51:23.286Z,18.00
2019-02-02T23:53:53.713Z,18.43
2019-02-02T23:56:27.291Z,19.13
2019-02-02T23:58:54.979Z,20.17
